Time;durP1;ratioP1;P1;durP2;ratioP2;P2;SDS_P1;SDS_P2;PMS_P1;PMS_P2;Temp;Humidity;BMP_temperature;BMP_pressure;BME280_temperature;BME280_humidity;BME280_pressure;Samples;Min_cycle;Max_cycle;Signal;HPM_P1;HPM_P2
2023/01/08 00:01:27;;;;;;;21.45;11.40;;;9.60;99.90;;;;;;4994939;28;20050;-86
2023/01/08 00:03:53;;;;;;;26.98;12.38;;;9.70;99.90;;;;;;4994482;28;20053;-86
2023/01/08 00:06:24;;;;;;;27.15;12.20;;;9.70;99.90;;;;;;4994704;28;20046;-86
2023/01/08 00:08:50;;;;;;;25.88;12.32;;;9.70;99.90;;;;;;4994962;28;20050;-86
2023/01/08 00:11:15;;;;;;;23.48;10.98;;;9.70;99.90;;;;;;4994530;28;20503;-86
2023/01/08 00:13:41;;;;;;;22.25;11.25;;;9.70;99.90;;;;;;4994635;28;20089;-86
2023/01/08 00:16:10;;;;;;;24.95;11.65;;;9.70;99.90;;;;;;4994581;28;20513;-86
2023/01/08 00:18:36;;;;;;;25.50;12.52;;;9.60;99.90;;;;;;4994680;28;20047;-86
2023/01/08 00:21:02;;;;;;;23.88;12.32;;;9.60;99.90;;;;;;4994402;28;20367;-86
2023/01/08 00:23:28;;;;;;;21.77;12.45;;;9.60;99.90;;;;;;4994043;28;20141;-87
2023/01/08 00:25:54;;;;;;;25.20;13.98;;;9.50;99.90;;;;;;4994336;28;20129;-87
2023/01/08 00:28:19;;;;;;;23.25;12.95;;;9.60;99.90;;;;;;4994283;28;20204;-87
2023/01/08 00:30:46;;;;;;;25.83;13.52;;;9.50;99.90;;;;;;4994423;28;20540;-86
2023/01/08 00:33:12;;;;;;;25.50;14.00;;;9.40;99.90;;;;;;4994169;28;20124;-86
2023/01/08 00:35:38;;;;;;;29.63;13.43;;;9.50;99.90;;;;;;4994451;28;20082;-86
2023/01/08 00:38:05;;;;;;;29.02;12.20;;;9.40;99.90;;;;;;4994041;28;20093;-87
2023/01/08 00:40:33;;;;;;;27.15;14.05;;;9.50;99.90;;;;;;4993844;28;20460;-86
2023/01/08 00:42:58;;;;;;;30.02;14.68;;;9.40;99.90;;;;;;4994072;28;20054;-86
2023/01/08 00:45:24;;;;;;;24.40;12.20;;;9.40;99.90;;;;;;4993811;28;20402;-86
2023/01/08 00:47:50;;;;;;;26.58;12.80;;;9.50;99.90;;;;;;4994084;28;20081;-86
2023/01/08 00:50:16;;;;;;;21.90;11.88;;;9.40;99.90;;;;;;4994181;28;20100;-86
2023/01/08 00:52:59;;;;;;;27.27;13.77;;;9.50;99.90;;;;;;4993723;28;20471;-87
2023/01/08 00:55:25;;;;;;;21.85;12.13;;;9.50;99.90;;;;;;4993644;28;20129;-86
2023/01/08 00:57:51;;;;;;;23.05;11.30;;;9.50;99.90;;;;;;4993535;28;20133;-86
2023/01/08 01:00:16;;;;;;;22.42;12.10;;;9.50;99.90;;;;;;4993966;28;20050;-86
2023/01/08 01:02:42;;;;;;;23.45;12.60;;;9.40;99.90;;;;;;4993627;28;20074;-86
2023/01/08 01:05:09;;;;;;;22.08;11.63;;;9.50;99.90;;;;;;4993556;28;20053;-86
2023/01/08 01:07:51;;;;;;;30.80;12.27;;;9.40;99.90;;;;;;4993310;28;20399;-86
2023/01/08 01:10:17;;;;;;;25.75;13.07;;;9.30;99.90;;;;;;4993708;28;20141;-87
2023/01/08 01:12:42;;;;;;;27.67;12.13;;;9.30;99.90;;;;;;4993361;28;20570;-86
2023/01/08 01:15:11;;;;;;;29.27;12.00;;;9.30;99.90;;;;;;4992829;28;20038;-86
2023/01/08 01:17:38;;;;;;;38.50;12.20;;;9.30;99.90;;;;;;4993487;28;20049;-86
2023/01/08 01:20:05;;;;;;;26.63;11.98;;;9.20;99.90;;;;;;4993155;28;20042;-86
2023/01/08 01:22:31;;;;;;;19.13;9.50;;;9.20;99.90;;;;;;4993413;28;20511;-86
2023/01/08 01:24:57;;;;;;;26.48;11.25;;;9.20;99.90;;;;;;4993083;28;20050;-86
2023/01/08 01:27:24;;;;;;;23.83;11.23;;;9.30;99.90;;;;;;4993210;28;20046;-86
2023/01/08 01:29:50;;;;;;;21.52;10.13;;;9.20;99.90;;;;;;4993294;28;20042;-86
2023/01/08 01:32:15;;;;;;;24.65;9.85;;;9.20;99.90;;;;;;4993095;28;20049;-86
2023/01/08 01:34:41;;;;;;;21.83;9.18;;;9.20;99.90;;;;;;4993310;28;20049;-86
2023/01/08 01:37:08;;;;;;;23.38;8.57;;;9.20;99.90;;;;;;4993039;28;20516;-86
2023/01/08 01:39:33;;;;;;;23.00;7.45;;;9.20;99.90;;;;;;4993310;28;20512;-86
2023/01/08 01:41:59;;;;;;;21.88;7.45;;;9.10;99.90;;;;;;4993239;28;20050;-87
2023/01/08 01:44:43;;;;;;;20.17;6.15;;;9.10;99.90;;;;;;4993334;28;20051;-87
2023/01/08 01:47:22;;;;;;;15.80;5.03;;;9.10;99.90;;;;;;4993276;28;20042;-86
2023/01/08 01:50:17;;;;;;;22.42;5.07;;;9.10;99.90;;;;;;4992989;28;20097;-86
2023/01/08 01:52:49;;;;;;;27.88;5.35;;;9.00;99.90;;;;;;4992140;28;20197;-86
2023/01/08 01:55:18;;;;;;;18.98;4.95;;;9.00;99.90;;;;;;4992985;28;20092;-86
2023/01/08 01:57:49;;;;;;;18.15;5.93;;;9.00;99.90;;;;;;4992770;28;20049;-86
2023/01/08 02:00:15;;;;;;;22.50;5.05;;;9.00;99.90;;;;;;4993106;28;20039;-86
2023/01/08 02:02:41;;;;;;;23.55;5.40;;;9.00;99.90;;;;;;4992990;28;20129;-87
2023/01/08 02:05:07;;;;;;;19.77;4.93;;;9.00;99.90;;;;;;4992822;28;20050;-86
2023/01/08 02:07:33;;;;;;;18.58;5.35;;;8.90;99.90;;;;;;4993135;28;20049;-86
2023/01/08 02:10:49;;;;;;;24.98;5.65;;;8.90;99.90;;;;;;4993370;28;20046;-86
2023/01/08 02:13:22;;;;;;;18.77;5.25;;;8.90;99.90;;;;;;4918122;29;20514;-86
2023/01/08 02:15:57;;;;;;;15.95;5.20;;;8.90;99.90;;;;;;4929171;28;20050;-86
2023/01/08 02:18:43;;;;;;;19.58;4.75;;;8.80;99.90;;;;;;4992776;28;20501;-86
2023/01/08 02:21:13;;;;;;;28.40;6.68;;;8.80;99.90;;;;;;4993287;28;20054;-86
2023/01/08 02:23:42;;;;;;;30.02;4.82;;;8.80;99.90;;;;;;4992411;28;20502;-86
2023/01/08 02:26:25;;;;;;;25.45;5.68;;;8.80;99.90;;;;;;4992987;28;20486;-86
2023/01/08 02:29:12;;;;;;;20.23;5.40;;;8.70;99.90;;;;;;4996433;28;20181;-86
2023/01/08 02:31:41;;;;;;;23.38;4.60;;;8.70;99.90;;;;;;4996378;28;20050;-86
2023/01/08 02:34:07;;;;;;;24.08;6.15;;;8.70;99.90;;;;;;4996615;28;20046;-86
2023/01/08 02:36:55;;;;;;;25.67;5.47;;;8.60;99.90;;;;;;4996352;28;20039;-86
2023/01/08 02:39:23;;;;;;;24.80;5.20;;;8.70;99.90;;;;;;4997401;28;20363;-86
2023/01/08 02:42:05;;;;;;;21.23;4.65;;;8.70;99.90;;;;;;4996396;28;20050;-86
2023/01/08 02:44:55;;;;;;;19.92;4.18;;;8.60;99.90;;;;;;4996083;28;20630;-86
2023/01/08 02:47:33;;;;;;;22.60;4.07;;;8.60;99.90;;;;;;4996123;28;20074;-86
2023/01/08 02:50:24;;;;;;;25.58;4.25;;;8.60;99.90;;;;;;4996865;28;20061;-86
2023/01/08 02:53:11;;;;;;;27.02;4.60;;;8.50;99.90;;;;;;4996044;28;20046;-86
2023/01/08 02:55:40;;;;;;;23.10;4.43;;;8.50;99.90;;;;;;4996101;28;20046;-86
2023/01/08 02:58:06;;;;;;;24.27;4.80;;;8.40;99.90;;;;;;4996332;28;20047;-86
2023/01/08 03:00:32;;;;;;;24.77;3.90;;;8.40;99.90;;;;;;4996026;28;20035;-86
2023/01/08 03:03:11;;;;;;;26.30;4.53;;;8.40;99.90;;;;;;4996017;28;20046;-86
2023/01/08 03:05:40;;;;;;;28.05;4.70;;;8.40;99.90;;;;;;4997071;28;20046;-86
2023/01/08 03:08:07;;;;;;;20.23;3.58;;;8.40;99.90;;;;;;4996002;28;20057;-86
2023/01/08 03:10:36;;;;;;;22.10;4.00;;;8.40;99.90;;;;;;4995420;28;20406;-85
2023/01/08 03:13:06;;;;;;;27.50;3.92;;;8.40;99.90;;;;;;4995524;28;20049;-86
2023/01/08 03:16:05;;;;;;;22.77;4.03;;;8.40;99.90;;;;;;4996350;28;20046;-86
2023/01/08 03:18:35;;;;;;;27.80;4.93;;;8.40;99.90;;;;;;4981618;28;20066;-86
2023/01/08 03:21:04;;;;;;;26.27;3.92;;;8.30;99.90;;;;;;4995451;28;20096;-86
2023/01/08 03:23:32;;;;;;;19.38;3.85;;;8.30;99.90;;;;;;4995410;28;20058;-87
2023/01/08 03:26:00;;;;;;;34.40;5.22;;;8.30;99.90;;;;;;4995718;28;20124;-86
2023/01/08 03:28:29;;;;;;;28.63;3.97;;;8.20;99.90;;;;;;4996601;28;20081;-86
2023/01/08 03:30:57;;;;;;;28.58;3.90;;;8.20;99.90;;;;;;4995244;28;20104;-86
2023/01/08 03:33:25;;;;;;;26.40;4.22;;;8.30;99.90;;;;;;4995379;28;20051;-86
2023/01/08 03:35:54;;;;;;;35.50;5.00;;;8.20;99.90;;;;;;4995431;28;20172;-86
2023/01/08 03:38:25;;;;;;;26.35;4.40;;;8.20;99.90;;;;;;4995416;28;20513;-85
2023/01/08 03:40:56;;;;;;;35.00;4.70;;;8.20;99.90;;;;;;4996625;28;20061;-86
2023/01/08 03:43:22;;;;;;;27.17;4.78;;;8.20;99.90;;;;;;4995227;28;20497;-86
2023/01/08 03:46:01;;;;;;;22.98;3.10;;;8.20;99.90;;;;;;4995402;28;20050;-86
2023/01/08 03:48:30;;;;;;;20.17;4.47;;;8.10;99.90;;;;;;4994987;28;20177;-86
2023/01/08 03:50:56;;;;;;;30.33;4.47;;;8.10;99.90;;;;;;4994884;28;20479;-85
2023/01/08 03:53:21;;;;;;;21.48;3.83;;;8.20;99.90;;;;;;4995007;28;20122;-85
2023/01/08 03:55:47;;;;;;;34.55;5.00;;;8.10;99.90;;;;;;4995119;28;20053;-85
2023/01/08 03:58:13;;;;;;;25.83;3.28;;;8.10;99.90;;;;;;4995130;28;20050;-86
2023/01/08 04:00:38;;;;;;;33.95;5.60;;;8.10;99.90;;;;;;4994658;28;20140;-86
2023/01/08 04:03:04;;;;;;;25.23;3.38;;;8.10;99.90;;;;;;4994909;28;20064;-85
2023/01/08 04:05:30;;;;;;;28.38;4.32;;;8.00;99.90;;;;;;4994855;28;20052;-86
2023/01/08 04:07:56;;;;;;;25.05;4.25;;;7.90;99.90;;;;;;4994471;28;20054;-85
2023/01/08 04:10:23;;;;;;;18.80;4.25;;;8.00;99.90;;;;;;4994908;28;20043;-85
2023/01/08 04:12:48;;;;;;;27.35;4.05;;;8.00;99.90;;;;;;4994583;28;20145;-85
2023/01/08 04:15:14;;;;;;;20.45;3.50;;;7.90;99.90;;;;;;4994655;28;20553;-86
2023/01/08 04:17:40;;;;;;;23.58;4.32;;;7.80;99.90;;;;;;4994409;28;20520;-85
2023/01/08 04:20:06;;;;;;;20.65;4.63;;;7.90;99.90;;;;;;4994420;28;20097;-86
2023/01/08 04:22:31;;;;;;;21.48;3.85;;;7.90;99.90;;;;;;4994390;28;20133;-85
2023/01/08 04:24:57;;;;;;;19.38;4.75;;;7.80;99.90;;;;;;4994267;28;20137;-85
2023/01/08 04:27:23;;;;;;;20.83;5.03;;;7.80;99.90;;;;;;4994335;28;20073;-85
2023/01/08 04:29:48;;;;;;;21.77;4.78;;;7.80;99.90;;;;;;4994345;28;20125;-85
2023/01/08 04:32:14;;;;;;;13.85;4.97;;;7.80;99.90;;;;;;4994051;28;20482;-85
2023/01/08 04:34:40;;;;;;;16.30;5.07;;;7.80;99.90;;;;;;4994288;28;20046;-85
2023/01/08 04:37:05;;;;;;;18.95;5.40;;;7.80;99.90;;;;;;4994062;28;20070;-85
2023/01/08 04:39:31;;;;;;;23.60;5.43;;;7.80;99.90;;;;;;4994056;28;20085;-85
2023/01/08 04:41:56;;;;;;;17.83;4.97;;;7.70;99.90;;;;;;4994339;28;20042;-85
2023/01/08 04:44:22;;;;;;;21.73;4.68;;;7.90;99.90;;;;;;4993800;28;20054;-85
2023/01/08 04:46:48;;;;;;;19.20;4.47;;;7.90;99.90;;;;;;4993806;28;20121;-85
2023/01/08 04:49:13;;;;;;;20.65;5.57;;;7.80;99.90;;;;;;4993582;28;20506;-85
2023/01/08 04:51:39;;;;;;;24.00;6.30;;;7.70;99.90;;;;;;4993755;28;20479;-85
2023/01/08 04:54:05;;;;;;;17.10;5.18;;;7.70;99.90;;;;;;4993751;28;20042;-85
2023/01/08 04:56:30;;;;;;;15.77;4.85;;;7.70;99.90;;;;;;4993723;28;20499;-85
2023/01/08 04:58:57;;;;;;;17.77;5.20;;;7.80;99.90;;;;;;4993651;28;20042;-85
2023/01/08 05:01:25;;;;;;;18.85;4.50;;;7.70;99.90;;;;;;4993852;28;20057;-85
2023/01/08 05:03:56;;;;;;;12.13;4.93;;;7.70;99.90;;;;;;4994799;28;20050;-85
2023/01/08 05:06:22;;;;;;;17.95;6.50;;;7.70;99.90;;;;;;4993577;28;20575;-85
2023/01/08 05:08:47;;;;;;;19.05;5.53;;;7.70;99.90;;;;;;4993685;28;20137;-85
2023/01/08 05:11:13;;;;;;;20.23;5.20;;;7.80;99.90;;;;;;4993505;28;20070;-85
2023/01/08 05:13:39;;;;;;;18.88;4.90;;;7.70;99.90;;;;;;4993649;28;20087;-85
2023/01/08 05:16:07;;;;;;;13.93;4.68;;;7.60;99.90;;;;;;4993371;28;20429;-86
2023/01/08 05:18:33;;;;;;;20.77;5.57;;;7.70;99.90;;;;;;4993355;28;20050;-86
2023/01/08 05:21:04;;;;;;;18.38;5.22;;;7.80;99.90;;;;;;4993374;28;20138;-85
2023/01/08 05:23:31;;;;;;;16.45;5.25;;;7.80;99.90;;;;;;4993067;28;20050;-85
2023/01/08 05:26:00;;;;;;;19.27;5.30;;;7.80;99.90;;;;;;4993596;28;20046;-85
2023/01/08 05:28:29;;;;;;;14.32;4.75;;;7.80;99.90;;;;;;4993144;28;20453;-85
2023/01/08 05:30:54;;;;;;;16.90;4.50;;;7.80;99.90;;;;;;4993123;28;20034;-86
2023/01/08 05:33:21;;;;;;;23.13;5.28;;;7.70;99.90;;;;;;4993097;28;20046;-86
2023/01/08 05:35:46;;;;;;;14.32;4.72;;;7.70;99.90;;;;;;4993000;28;20042;-85
2023/01/08 05:38:12;;;;;;;15.05;4.65;;;7.80;99.90;;;;;;4993338;28;20046;-86
2023/01/08 05:40:37;;;;;;;18.48;5.13;;;7.80;99.90;;;;;;4994248;28;20478;-86
2023/01/08 05:43:04;;;;;;;18.60;5.32;;;7.70;99.90;;;;;;4993875;28;20536;-86
2023/01/08 05:45:30;;;;;;;12.88;4.90;;;7.70;99.90;;;;;;4993012;28;20042;-86
2023/01/08 05:47:56;;;;;;;14.77;5.65;;;7.70;99.90;;;;;;4993277;28;20046;-85
2023/01/08 05:50:22;;;;;;;19.05;5.50;;;7.60;99.90;;;;;;4993132;28;20398;-86
2023/01/08 05:52:48;;;;;;;29.08;8.50;;;7.70;99.90;;;;;;4992947;28;20049;-86
2023/01/08 05:55:14;;;;;;;14.77;4.70;;;7.60;99.90;;;;;;4993065;28;20038;-85
2023/01/08 05:57:39;;;;;;;15.93;4.75;;;7.60;99.90;;;;;;4992828;28;20054;-86
2023/01/08 06:00:07;;;;;;;13.73;5.10;;;7.60;99.90;;;;;;4992856;28;20095;-85
2023/01/08 06:02:33;;;;;;;16.95;4.90;;;7.60;99.90;;;;;;4995312;28;20050;-85
2023/01/08 06:04:59;;;;;;;14.77;5.00;;;7.70;99.90;;;;;;4997028;28;20049;-86
2023/01/08 06:07:24;;;;;;;15.43;4.80;;;7.50;99.90;;;;;;4998104;28;20050;-86
2023/01/08 06:09:52;;;;;;;18.52;4.70;;;7.60;99.90;;;;;;4996930;28;20074;-86
2023/01/08 06:12:18;;;;;;;15.50;4.88;;;7.70;99.90;;;;;;4996875;28;20515;-86
2023/01/08 06:14:43;;;;;;;12.18;4.05;;;7.60;99.90;;;;;;4997061;28;20054;-86
2023/01/08 06:17:09;;;;;;;14.05;3.85;;;7.70;99.90;;;;;;4996965;28;20058;-86
2023/01/08 06:19:35;;;;;;;19.60;6.03;;;7.70;99.90;;;;;;4996706;28;20044;-86
2023/01/08 06:22:00;;;;;;;17.33;5.13;;;7.60;99.90;;;;;;4996881;28;20081;-86
2023/01/08 06:24:26;;;;;;;12.55;5.25;;;7.70;99.90;;;;;;4996238;28;20050;-86
2023/01/08 06:26:52;;;;;;;19.38;5.75;;;7.60;99.90;;;;;;4996451;28;20061;-87
2023/01/08 06:29:17;;;;;;;16.98;5.10;;;7.60;99.90;;;;;;4996756;28;20057;-85
2023/01/08 06:31:43;;;;;;;12.73;4.80;;;7.60;99.90;;;;;;4996447;28;20405;-85
2023/01/08 06:34:09;;;;;;;10.95;4.28;;;7.60;99.90;;;;;;4996425;28;20042;-86
2023/01/08 06:36:35;;;;;;;10.40;4.38;;;7.50;99.90;;;;;;4996425;28;20070;-86
2023/01/08 06:39:01;;;;;;;14.50;5.57;;;7.50;99.90;;;;;;4996246;28;20046;-85
2023/01/08 06:41:26;;;;;;;17.85;5.10;;;7.60;99.90;;;;;;4996113;28;20120;-86
2023/01/08 06:43:52;;;;;;;14.93;4.45;;;7.50;99.90;;;;;;4996056;28;20136;-86
2023/01/08 06:46:17;;;;;;;14.30;4.60;;;7.50;99.90;;;;;;4996110;28;20061;-86
2023/01/08 06:48:43;;;;;;;15.00;4.90;;;7.60;99.90;;;;;;4996582;28;20486;-87
2023/01/08 06:51:09;;;;;;;16.38;5.10;;;7.50;99.90;;;;;;4996074;28;20204;-87
2023/01/08 06:53:35;;;;;;;15.60;5.53;;;7.50;99.90;;;;;;4995816;28;20478;-87
2023/01/08 06:56:02;;;;;;;14.85;3.95;;;7.50;99.90;;;;;;4995992;28;20079;-86
2023/01/08 06:58:29;;;;;;;15.05;4.53;;;7.60;99.90;;;;;;4996250;28;20096;-86
2023/01/08 07:00:55;;;;;;;10.85;3.63;;;7.50;99.90;;;;;;4995856;28;20046;-86
2023/01/08 07:03:20;;;;;;;13.32;3.38;;;7.60;99.90;;;;;;4995950;28;20050;-87
2023/01/08 07:05:46;;;;;;;21.30;4.32;;;7.50;99.90;;;;;;4995647;28;20490;-86
2023/01/08 07:08:15;;;;;;;14.48;3.50;;;7.50;99.90;;;;;;4995726;28;20533;-88
2023/01/08 07:10:42;;;;;;;19.23;4.18;;;7.50;99.90;;;;;;4995947;28;20042;-87
2023/01/08 07:13:08;;;;;;;11.15;3.53;;;7.40;99.90;;;;;;4994395;28;20082;-87
2023/01/08 07:15:39;;;;;;;13.40;3.58;;;7.40;99.90;;;;;;4995831;28;20034;-89
2023/01/08 07:18:06;;;;;;;14.07;3.55;;;7.40;99.90;;;;;;4995615;28;20046;-87
2023/01/08 07:20:33;;;;;;;17.75;4.13;;;7.40;99.90;;;;;;4995430;28;20046;-86
2023/01/08 07:23:09;;;;;;;13.45;3.80;;;7.40;99.90;;;;;;4995651;28;20417;-87
2023/01/08 07:25:35;;;;;;;21.88;3.83;;;7.40;99.90;;;;;;4995350;28;20490;-86
2023/01/08 07:28:01;;;;;;;24.10;4.53;;;7.40;99.90;;;;;;4995379;28;20101;-87
2023/01/08 07:30:27;;;;;;;16.95;3.70;;;7.30;99.90;;;;;;4995126;28;20046;-86
2023/01/08 07:32:57;;;;;;;20.48;4.05;;;7.40;99.90;;;;;;4995227;28;20050;-86
2023/01/08 07:35:23;;;;;;;11.23;3.30;;;7.30;99.90;;;;;;4995178;28;20129;-86
2023/01/08 07:37:49;;;;;;;21.17;3.55;;;7.30;99.90;;;;;;4995011;28;20130;-86
2023/01/08 07:40:14;;;;;;;14.15;4.10;;;7.30;99.90;;;;;;4994979;28;20081;-86
2023/01/08 07:42:40;;;;;;;13.80;4.60;;;7.20;99.90;;;;;;4994315;28;20057;-87
2023/01/08 07:45:07;;;;;;;16.17;4.47;;;7.20;99.90;;;;;;4994260;28;20042;-87
2023/01/08 07:47:32;;;;;;;21.80;4.07;;;7.20;99.90;;;;;;4995096;28;20136;-87
2023/01/08 07:49:58;;;;;;;16.50;3.88;;;7.20;99.90;;;;;;4995167;28;20133;-86
2023/01/08 07:52:24;;;;;;;20.88;4.10;;;7.20;99.90;;;;;;4994728;28;20081;-86
2023/01/08 07:54:49;;;;;;;13.75;3.50;;;7.20;99.90;;;;;;4994672;28;20046;-86
2023/01/08 07:57:15;;;;;;;23.23;4.75;;;7.20;99.90;;;;;;4994887;28;20057;-86
2023/01/08 07:59:40;;;;;;;19.85;5.00;;;7.10;99.90;;;;;;4994955;28;20053;-82
2023/01/08 08:02:06;;;;;;;13.88;4.00;;;7.10;99.90;;;;;;4994882;28;20042;-85
2023/01/08 08:04:32;;;;;;;14.05;5.40;;;7.00;99.90;;;;;;4994614;28;20050;-86
2023/01/08 08:06:58;;;;;;;18.65;5.32;;;7.10;99.90;;;;;;4997736;28;20050;-85
2023/01/08 08:09:23;;;;;;;19.33;5.30;;;7.10;99.90;;;;;;5003249;28;20137;-83
2023/01/08 08:11:49;;;;;;;23.80;6.25;;;7.00;99.90;;;;;;4994451;28;20529;-86
2023/01/08 08:14:14;;;;;;;19.50;5.95;;;7.20;99.90;;;;;;4994400;28;20073;-84
2023/01/08 08:16:40;;;;;;;19.77;7.03;;;7.10;99.90;;;;;;4994081;28;20052;-84
2023/01/08 08:19:06;;;;;;;22.73;7.30;;;7.10;99.90;;;;;;4994344;28;20129;-84
2023/01/08 08:21:31;;;;;;;23.55;7.53;;;7.20;99.90;;;;;;4994325;28;20401;-84
2023/01/08 08:23:57;;;;;;;15.75;6.57;;;7.00;99.90;;;;;;4993637;28;20121;-84
2023/01/08 08:26:23;;;;;;;20.33;7.50;;;7.10;99.90;;;;;;4993978;28;20050;-87
2023/01/08 08:28:49;;;;;;;22.30;8.98;;;7.10;99.90;;;;;;4995109;28;20137;-84
2023/01/08 08:31:14;;;;;;;23.27;7.10;;;7.20;99.90;;;;;;4995047;28;20089;-85
2023/01/08 08:33:40;;;;;;;23.58;7.32;;;7.10;99.90;;;;;;4994153;28;20122;-77
2023/01/08 08:36:06;;;;;;;31.70;8.45;;;7.20;99.90;;;;;;4993866;28;20461;-85
2023/01/08 08:38:32;;;;;;;27.83;7.82;;;7.20;99.90;;;;;;4994068;28;20452;-85
2023/01/08 08:40:58;;;;;;;28.50;9.20;;;7.20;99.90;;;;;;4993884;28;20042;-85
2023/01/08 08:43:24;;;;;;;28.55;9.07;;;7.20;99.90;;;;;;4993588;28;20130;-85
2023/01/08 08:45:49;;;;;;;23.98;8.48;;;7.20;99.90;;;;;;4994065;28;20046;-85
2023/01/08 08:48:15;;;;;;;18.00;7.40;;;7.20;99.90;;;;;;4993906;28;20497;-85
2023/01/08 08:50:41;;;;;;;22.85;7.45;;;7.20;99.90;;;;;;4993569;28;20065;-85
2023/01/08 08:53:08;;;;;;;28.08;8.52;;;7.20;99.90;;;;;;4993381;28;20050;-86
2023/01/08 08:55:34;;;;;;;26.38;7.82;;;7.30;99.90;;;;;;4993462;28;20045;-87
2023/01/08 08:58:05;;;;;;;36.78;10.35;;;7.30;99.90;;;;;;4993880;28;20046;-89
2023/01/08 09:00:31;;;;;;;40.30;11.50;;;7.40;99.90;;;;;;4993660;28;20045;-88
2023/01/08 09:02:57;;;;;;;30.42;10.23;;;7.30;99.90;;;;;;4993676;28;20050;-88
2023/01/08 09:05:23;;;;;;;31.05;8.60;;;7.30;99.90;;;;;;4993204;28;20050;-87
2023/01/08 09:07:48;;;;;;;26.75;9.02;;;7.50;99.90;;;;;;4993494;28;20052;-84
2023/01/08 09:10:14;;;;;;;20.85;7.13;;;7.50;99.90;;;;;;4993178;28;20073;-85
2023/01/08 09:12:40;;;;;;;24.75;7.32;;;7.50;99.90;;;;;;4994298;28;20132;-85
2023/01/08 09:15:06;;;;;;;19.90;7.65;;;7.60;99.90;;;;;;4993317;28;20050;-85
2023/01/08 09:17:32;;;;;;;23.08;6.15;;;7.60;99.90;;;;;;4993277;28;20046;-85
2023/01/08 09:19:58;;;;;;;23.02;6.10;;;7.60;99.90;;;;;;4993054;28;20077;-85
2023/01/08 09:22:24;;;;;;;17.45;5.50;;;7.70;99.90;;;;;;4993016;28;20058;-87
2023/01/08 09:24:50;;;;;;;16.05;4.13;;;7.70;99.90;;;;;;4992640;28;20058;-83
2023/01/08 09:27:15;;;;;;;30.63;5.47;;;7.70;99.90;;;;;;4993175;28;20054;-85
2023/01/08 09:29:41;;;;;;;22.63;6.07;;;7.70;99.90;;;;;;4994099;28;20053;-84
2023/01/08 09:32:07;;;;;;;18.60;4.18;;;7.80;99.90;;;;;;4993010;28;20057;-85
2023/01/08 09:34:35;;;;;;;19.27;4.97;;;7.80;99.90;;;;;;4993089;28;20401;-85
2023/01/08 09:37:01;;;;;;;16.23;4.15;;;7.80;99.90;;;;;;4991982;28;20057;-85
2023/01/08 09:39:26;;;;;;;14.65;4.15;;;7.90;99.90;;;;;;4992747;28;20449;-86
2023/01/08 09:41:54;;;;;;;20.25;5.10;;;7.90;99.90;;;;;;4992960;28;20481;-85
2023/01/08 09:44:24;;;;;;;16.25;4.97;;;7.90;99.90;;;;;;4992676;28;20129;-85
2023/01/08 09:46:54;;;;;;;23.85;6.00;;;8.00;99.90;;;;;;4993270;28;20081;-85
2023/01/08 09:49:39;;;;;;;17.48;4.28;;;8.00;99.90;;;;;;4992637;28;20125;-85
2023/01/08 09:52:05;;;;;;;18.73;4.88;;;8.10;99.90;;;;;;4992789;28;20121;-84
2023/01/08 09:54:31;;;;;;;16.98;4.78;;;8.10;99.90;;;;;;4999712;28;20137;-87
2023/01/08 09:56:58;;;;;;;19.20;5.82;;;8.20;99.90;;;;;;5017004;28;20042;-87
2023/01/08 09:59:25;;;;;;;22.88;5.07;;;8.20;99.90;;;;;;5020167;28;20567;-87
2023/01/08 10:01:51;;;;;;;16.92;5.05;;;8.20;99.90;;;;;;5012514;28;20066;-84
2023/01/08 10:04:25;;;;;;;23.15;5.95;;;8.30;99.90;;;;;;5012650;28;20053;-85
2023/01/08 10:06:53;;;;;;;35.42;10.95;;;8.40;99.90;;;;;;5012055;28;20084;-86
2023/01/08 10:09:27;;;;;;;40.20;10.85;;;8.40;99.90;;;;;;5012353;28;20069;-86
2023/01/08 10:11:58;;;;;;;33.78;11.77;;;8.40;99.90;;;;;;5011953;28;20046;-87
2023/01/08 10:14:36;;;;;;;19.30;5.97;;;8.50;99.90;;;;;;5011938;28;20522;-85
2023/01/08 10:17:30;;;;;;;22.45;6.25;;;8.50;99.90;;;;;;5012253;28;20056;-89
2023/01/08 10:19:56;;;;;;;22.48;8.23;;;8.50;99.90;;;;;;5011891;28;20041;-87
2023/01/08 10:22:24;;;;;;;23.25;5.40;;;8.60;99.90;;;;;;5012211;28;20045;-86
2023/01/08 10:24:50;;;;;;;17.35;4.88;;;8.50;99.90;;;;;;5005919;28;20461;-85
2023/01/08 10:27:21;;;;;;;24.00;4.38;;;8.50;99.90;;;;;;5002048;28;20049;-85
2023/01/08 10:29:49;;;;;;;27.38;6.65;;;8.60;99.90;;;;;;5000956;28;20613;-86
2023/01/08 10:32:26;;;;;;;15.85;5.40;;;8.60;99.90;;;;;;5011912;28;20046;-86
2023/01/08 10:34:55;;;;;;;28.02;7.90;;;8.60;99.90;;;;;;5013438;28;20050;-85
2023/01/08 10:37:31;;;;;;;32.67;10.93;;;8.60;99.90;;;;;;5011762;28;20042;-85
2023/01/08 10:40:18;;;;;;;25.42;6.07;;;8.60;99.90;;;;;;5012130;28;20049;-85
2023/01/08 10:42:45;;;;;;;22.33;6.43;;;8.70;99.90;;;;;;5011970;28;20401;-87
2023/01/08 10:45:20;;;;;;;20.92;6.38;;;8.70;99.90;;;;;;5011779;28;20374;-85
2023/01/08 10:47:49;;;;;;;13.52;5.15;;;8.70;99.90;;;;;;5012637;28;20048;-85
2023/01/08 10:50:28;;;;;;;21.65;5.80;;;8.70;99.90;;;;;;5015670;28;20128;-86
2023/01/08 10:52:59;;;;;;;17.92;5.03;;;8.70;99.90;;;;;;5015276;28;20445;-85
2023/01/08 10:55:31;;;;;;;20.00;5.47;;;8.80;99.90;;;;;;5015598;28;20068;-86
2023/01/08 10:58:02;;;;;;;21.25;6.28;;;8.80;99.90;;;;;;5015599;28;20058;-85
2023/01/08 11:00:31;;;;;;;29.85;5.22;;;8.80;99.90;;;;;;5015449;28;20136;-85
2023/01/08 11:03:00;;;;;;;26.13;6.18;;;8.80;99.90;;;;;;5015393;28;20578;-86
2023/01/08 11:05:34;;;;;;;22.98;6.05;;;8.80;99.90;;;;;;5009335;28;20157;-86
2023/01/08 11:08:02;;;;;;;18.80;5.78;;;8.80;99.90;;;;;;5004315;28;20049;-86
2023/01/08 11:10:29;;;;;;;29.65;4.95;;;8.90;99.90;;;;;;5000568;28;20081;-85
2023/01/08 11:13:00;;;;;;;20.27;5.82;;;8.90;99.90;;;;;;4999918;28;20177;-87
2023/01/08 11:15:39;;;;;;;20.95;5.05;;;8.90;99.90;;;;;;5015406;28;20052;-84
2023/01/08 11:18:20;;;;;;;26.65;5.90;;;9.00;99.90;;;;;;5014854;28;20129;-85
2023/01/08 11:20:46;;;;;;;15.80;5.55;;;9.00;99.90;;;;;;5016177;28;20050;-85
2023/01/08 11:23:22;;;;;;;21.23;4.57;;;9.00;99.90;;;;;;5014546;28;20195;-88
2023/01/08 11:26:12;;;;;;;27.88;6.70;;;9.00;99.90;;;;;;5014685;28;20054;-87
2023/01/08 11:29:01;;;;;;;19.70;5.20;;;9.00;99.90;;;;;;5015059;28;20042;-87
2023/01/08 11:32:08;;;;;;;21.20;4.72;;;9.00;99.90;;;;;;5014870;28;20425;-87
2023/01/08 11:34:42;;;;;;;22.35;4.70;;;9.00;99.90;;;;;;5014757;28;20046;-89
2023/01/08 11:37:21;;;;;;;23.67;4.07;;;9.00;99.90;;;;;;5014582;28;20038;-86
2023/01/08 11:39:48;;;;;;;21.77;6.50;;;9.10;99.90;;;;;;5014381;28;20060;-88
2023/01/08 11:42:45;;;;;;;18.38;5.60;;;9.00;99.90;;;;;;5014554;28;20057;-85
2023/01/08 11:45:32;;;;;;;23.38;4.82;;;8.90;99.90;;;;;;5001596;28;20108;-86
2023/01/08 11:48:12;;;;;;;15.10;3.33;;;8.90;99.90;;;;;;5019510;28;20041;-84
2023/01/08 11:51:03;;;;;;;19.50;5.47;;;9.00;99.90;;;;;;4994944;28;20054;-84
2023/01/08 11:53:28;;;;;;;19.20;5.30;;;9.00;99.90;;;;;;5030385;28;20053;-85
2023/01/08 11:56:25;;;;;;;22.77;5.38;;;9.00;99.90;;;;;;5033998;28;20038;-85
2023/01/08 11:59:06;;;;;;;24.45;5.55;;;9.00;99.90;;;;;;5034931;28;20057;-89
2023/01/08 12:02:06;;;;;;;20.55;6.10;;;9.00;99.90;;;;;;5033239;28;20128;-90
2023/01/08 12:04:47;;;;;;;20.88;5.85;;;8.90;99.90;;;;;;5035213;28;20115;-87
2023/01/08 12:07:54;;;;;;;16.05;4.63;;;8.90;99.90;;;;;;5033731;28;20077;-87
2023/01/08 12:10:45;;;;;;;29.85;5.30;;;8.90;99.90;;;;;;5034848;28;20058;-86
2023/01/08 12:13:22;;;;;;;22.60;5.07;;;9.00;99.90;;;;;;5033662;28;20053;-88
2023/01/08 12:16:22;;;;;;;33.65;9.43;;;9.00;99.90;;;;;;5033595;28;20386;-88
2023/01/08 12:19:16;;;;;;;18.33;6.18;;;9.00;99.90;;;;;;5032960;28;20060;-86
2023/01/08 12:22:17;;;;;;;37.10;8.45;;;9.00;99.90;;;;;;5033666;28;20049;-86
2023/01/08 12:25:12;;;;;;;20.65;6.72;;;9.00;99.90;;;;;;5033323;28;20072;-85
2023/01/08 12:27:56;;;;;;;25.15;6.68;;;9.00;99.90;;;;;;5033381;28;20417;-86
2023/01/08 12:30:27;;;;;;;23.65;6.13;;;9.00;99.90;;;;;;5033580;28;20460;-86
2023/01/08 12:32:59;;;;;;;21.08;7.05;;;9.00;99.90;;;;;;5033182;28;20057;-86
2023/01/08 12:35:32;;;;;;;26.47;7.03;;;9.10;99.90;;;;;;5021275;28;20034;-86
2023/01/08 12:38:20;;;;;;;31.67;8.60;;;9.00;99.90;;;;;;5034721;28;20292;-85
2023/01/08 12:41:07;;;;;;;20.75;8.65;;;9.00;99.90;;;;;;5033159;28;20052;-85
2023/01/08 12:43:52;;;;;;;25.95;7.63;;;9.00;99.90;;;;;;5033363;28;20053;-86
2023/01/08 12:46:19;;;;;;;31.27;7.82;;;9.00;99.90;;;;;;5033608;28;20061;-85
2023/01/08 12:48:48;;;;;;;25.83;9.98;;;9.10;99.90;;;;;;5033063;28;20080;-90
2023/01/08 12:51:25;;;;;;;31.13;6.90;;;9.10;99.90;;;;;;5032047;28;20045;-85
2023/01/08 12:54:03;;;;;;;23.95;7.15;;;9.00;99.90;;;;;;5033223;28;20111;-85
2023/01/08 12:56:43;;;;;;;31.17;6.60;;;9.00;99.90;;;;;;5033030;28;20049;-86
2023/01/08 12:59:27;;;;;;;23.00;6.82;;;9.00;99.90;;;;;;5032973;28;20056;-86
2023/01/08 13:02:04;;;;;;;24.95;7.07;;;8.90;99.90;;;;;;5033024;28;20045;-87